Time;durP1;ratioP1;P1;durP2;ratioP2;P2;SDS_P1;SDS_P2;PMS_P1;PMS_P2;Temp;Humidity;BMP_temperature;BMP_pressure;BME280_temperature;BME280_humidity;BME280_pressure;Samples;Min_cycle;Max_cycle;Signal;HPM_P1;HPM_P2
2022/08/30 00:02:32;;;;;;;6.47;3.50;;;18.90;99.90;;;;;;5021299;28;20199;-63
2022/08/30 00:05:00;;;;;;;10.27;3.85;;;18.80;99.90;;;;;;5014843;28;20215;-62
2022/08/30 00:07:26;;;;;;;8.07;3.97;;;18.90;99.90;;;;;;5014386;28;20651;-62
2022/08/30 00:09:52;;;;;;;10.25;3.70;;;19.00;99.90;;;;;;5026463;28;20217;-62
2022/08/30 00:12:19;;;;;;;5.93;3.58;;;19.10;99.90;;;;;;5021114;28;20211;-62
2022/08/30 00:14:46;;;;;;;4.25;3.55;;;19.00;99.90;;;;;;5052549;28;20703;-62
2022/08/30 00:17:12;;;;;;;10.00;3.83;;;19.20;99.90;;;;;;5016364;28;20230;-63
2022/08/30 00:19:38;;;;;;;16.27;4.70;;;19.10;99.90;;;;;;5021096;28;20215;-62
2022/08/30 00:22:05;;;;;;;9.00;4.57;;;19.10;99.90;;;;;;5010964;28;20241;-61
2022/08/30 00:24:31;;;;;;;5.05;4.22;;;18.90;99.90;;;;;;5028450;28;20183;-62
2022/08/30 00:26:57;;;;;;;7.25;3.80;;;18.80;99.90;;;;;;5024786;28;20538;-62
2022/08/30 00:29:23;;;;;;;5.78;3.63;;;18.80;99.90;;;;;;5020309;28;20247;-63
2022/08/30 00:31:48;;;;;;;6.68;4.15;;;18.80;99.90;;;;;;5032206;28;20186;-62
2022/08/30 00:34:15;;;;;;;6.22;3.78;;;18.70;99.90;;;;;;5013919;28;20297;-63
2022/08/30 00:36:42;;;;;;;8.50;5.82;;;18.90;99.90;;;;;;5023545;28;20526;-62
2022/08/30 00:39:08;;;;;;;8.18;4.85;;;18.60;99.90;;;;;;5029175;28;20194;-62
2022/08/30 00:41:34;;;;;;;9.07;5.22;;;18.50;99.90;;;;;;5019440;28;20187;-63
2022/08/30 00:44:00;;;;;;;10.60;4.78;;;18.40;99.90;;;;;;5030680;28;20191;-62
2022/08/30 00:46:26;;;;;;;7.82;4.03;;;18.40;99.90;;;;;;5012804;28;20215;-62
2022/08/30 00:48:52;;;;;;;7.65;4.68;;;18.40;99.90;;;;;;5018098;28;20191;-62
2022/08/30 00:51:20;;;;;;;14.20;4.90;;;18.40;99.90;;;;;;5021079;28;20239;-62
2022/08/30 00:53:49;;;;;;;8.68;4.18;;;18.30;99.90;;;;;;5016205;28;20187;-63
2022/08/30 00:56:16;;;;;;;14.23;5.28;;;18.40;99.90;;;;;;5022548;28;20229;-62
2022/08/30 00:58:47;;;;;;;5.65;4.32;;;18.30;99.90;;;;;;5051128;28;20191;-62
2022/08/30 01:01:13;;;;;;;7.65;4.10;;;18.10;99.90;;;;;;5018388;28;20652;-63
2022/08/30 01:03:40;;;;;;;8.02;4.70;;;18.10;99.90;;;;;;5014483;28;20194;-62
2022/08/30 01:06:06;;;;;;;7.35;4.95;;;18.00;99.90;;;;;;5012470;28;20220;-62
2022/08/30 01:08:32;;;;;;;9.20;4.65;;;18.00;99.90;;;;;;5026144;28;20195;-62
2022/08/30 01:11:00;;;;;;;5.63;4.90;;;18.20;99.90;;;;;;5023171;28;20186;-62
2022/08/30 01:13:26;;;;;;;13.50;5.85;;;18.30;99.90;;;;;;5027075;28;20236;-62
2022/08/30 01:15:53;;;;;;;8.57;5.32;;;18.30;99.90;;;;;;5013303;28;20199;-63
2022/08/30 01:18:19;;;;;;;11.73;5.60;;;18.40;99.90;;;;;;5027712;28;20198;-62
2022/08/30 01:21:20;;;;;;;10.20;5.38;;;18.40;99.90;;;;;;5031644;28;20205;-63
2022/08/30 01:23:49;;;;;;;7.25;4.85;;;18.30;99.90;;;;;;5018680;28;20269;-62
2022/08/30 01:26:16;;;;;;;9.32;4.88;;;18.30;99.90;;;;;;5025689;28;20326;-62
2022/08/30 01:28:46;;;;;;;9.60;4.70;;;18.20;99.90;;;;;;5012874;28;20194;-62
2022/08/30 01:31:12;;;;;;;9.38;4.28;;;18.10;99.90;;;;;;5013319;28;20326;-62
2022/08/30 01:33:38;;;;;;;6.60;4.63;;;18.20;99.90;;;;;;5015941;28;20265;-63
2022/08/30 01:36:10;;;;;;;8.68;4.95;;;18.30;99.90;;;;;;5029696;28;20199;-62
2022/08/30 01:38:43;;;;;;;7.03;4.50;;;18.40;99.90;;;;;;5023222;28;20675;-62
2022/08/30 01:41:28;;;;;;;6.97;4.78;;;18.40;99.90;;;;;;5019951;28;20320;-62
2022/08/30 01:43:58;;;;;;;5.43;4.15;;;18.30;99.90;;;;;;5027836;28;20193;-65
2022/08/30 01:46:27;;;;;;;7.95;5.20;;;18.30;99.90;;;;;;5013607;28;20214;-61
2022/08/30 01:48:56;;;;;;;5.65;4.18;;;18.20;99.90;;;;;;5026216;28;20193;-61
2022/08/30 01:51:25;;;;;;;7.65;4.72;;;18.20;99.90;;;;;;5015804;28;20182;-61
2022/08/30 01:53:51;;;;;;;10.20;5.15;;;18.20;99.90;;;;;;5013289;28;20183;-61
2022/08/30 01:56:17;;;;;;;10.45;4.32;;;18.20;99.90;;;;;;5011591;28;20652;-62
2022/08/30 01:58:43;;;;;;;9.00;6.05;;;18.00;99.90;;;;;;5008654;28;20183;-62
2022/08/30 02:01:12;;;;;;;6.18;4.13;;;18.10;99.90;;;;;;5023057;28;20269;-62
2022/08/30 02:03:40;;;;;;;11.73;6.32;;;18.10;99.90;;;;;;5024093;28;20187;-61
2022/08/30 02:06:10;;;;;;;12.80;5.13;;;18.00;99.90;;;;;;5026575;28;20572;-61
2022/08/30 02:08:36;;;;;;;9.38;5.47;;;18.00;99.90;;;;;;5012712;28;20228;-61
2022/08/30 02:11:05;;;;;;;9.77;5.15;;;18.00;99.90;;;;;;5013154;28;20660;-61
2022/08/30 02:13:31;;;;;;;8.68;4.47;;;17.90;99.90;;;;;;5018954;28;20179;-60
2022/08/30 02:15:58;;;;;;;7.95;5.05;;;17.80;99.90;;;;;;5024936;28;20202;-61
2022/08/30 02:18:24;;;;;;;7.80;4.88;;;17.90;99.90;;;;;;5023354;28;20191;-61
2022/08/30 02:20:50;;;;;;;6.53;5.03;;;18.00;99.90;;;;;;5020158;28;20182;-61
2022/08/30 02:23:16;;;;;;;7.82;5.30;;;18.00;99.90;;;;;;5028338;28;20325;-61
2022/08/30 02:25:43;;;;;;;13.30;5.30;;;18.00;99.90;;;;;;5019830;28;20214;-61
2022/08/30 02:28:09;;;;;;;9.23;4.80;;;18.00;99.90;;;;;;5029264;28;20182;-62
2022/08/30 02:30:35;;;;;;;7.25;4.82;;;17.90;99.90;;;;;;5022652;28;20658;-61
2022/08/30 02:33:01;;;;;;;8.68;5.00;;;17.80;99.90;;;;;;5028499;28;20647;-61
2022/08/30 02:35:26;;;;;;;7.15;5.00;;;17.90;99.90;;;;;;5022858;28;20270;-61
2022/08/30 02:37:52;;;;;;;8.52;5.18;;;17.80;99.90;;;;;;5031115;28;20190;-61
2022/08/30 02:40:20;;;;;;;5.40;4.75;;;17.60;99.90;;;;;;5031407;28;20191;-61
2022/08/30 02:42:46;;;;;;;10.10;5.70;;;17.60;99.90;;;;;;5019110;28;20202;-61
2022/08/30 02:45:12;;;;;;;10.10;6.07;;;17.60;99.90;;;;;;5029987;28;20641;-61
2022/08/30 02:47:38;;;;;;;6.53;5.28;;;17.60;99.90;;;;;;5017763;28;20261;-61
2022/08/30 02:50:06;;;;;;;10.07;5.78;;;17.50;99.90;;;;;;5026379;28;20206;-61
2022/08/30 02:52:31;;;;;;;9.25;5.60;;;17.60;99.90;;;;;;5024972;28;20175;-62
2022/08/30 02:54:58;;;;;;;8.93;5.75;;;17.50;99.90;;;;;;5017688;28;20682;-61
2022/08/30 02:57:24;;;;;;;5.85;4.45;;;17.50;99.90;;;;;;5023848;28;20183;-62
2022/08/30 02:59:50;;;;;;;9.23;5.05;;;17.40;99.90;;;;;;5015434;28;20719;-61
2022/08/30 03:02:16;;;;;;;6.85;5.35;;;17.40;99.90;;;;;;5025104;28;20191;-61
2022/08/30 03:04:44;;;;;;;5.75;5.15;;;17.30;99.90;;;;;;5019631;28;20210;-61
2022/08/30 03:07:11;;;;;;;8.75;5.60;;;17.30;99.90;;;;;;5030145;28;20234;-61
2022/08/30 03:09:37;;;;;;;7.13;4.47;;;17.30;99.90;;;;;;5015167;28;20203;-61
2022/08/30 03:12:05;;;;;;;14.13;6.15;;;17.40;99.90;;;;;;5018698;28;20234;-61
2022/08/30 03:14:31;;;;;;;9.95;5.22;;;17.30;99.90;;;;;;5015511;28;20644;-61
2022/08/30 03:16:57;;;;;;;9.23;5.70;;;17.20;99.90;;;;;;5015661;28;20191;-61
2022/08/30 03:19:24;;;;;;;10.88;6.45;;;17.20;99.90;;;;;;5015477;28;20191;-61
2022/08/30 03:21:50;;;;;;;9.30;5.88;;;17.20;99.90;;;;;;5011758;28;20533;-61
2022/08/30 03:24:16;;;;;;;11.40;5.53;;;17.20;99.90;;;;;;5027502;28;20198;-61
2022/08/30 03:26:41;;;;;;;7.90;5.22;;;17.30;99.90;;;;;;5027113;28;20214;-61
2022/08/30 03:29:07;;;;;;;8.13;6.28;;;17.30;99.90;;;;;;5047594;28;20211;-61
2022/08/30 03:31:33;;;;;;;6.43;5.63;;;17.30;99.90;;;;;;5015604;28;20270;-61
2022/08/30 03:33:58;;;;;;;10.20;5.88;;;17.30;99.90;;;;;;5014184;28;20183;-61
2022/08/30 03:36:24;;;;;;;6.72;5.13;;;17.30;99.90;;;;;;5026748;28;20198;-62
2022/08/30 03:38:50;;;;;;;8.15;5.07;;;17.30;99.90;;;;;;5015783;28;20181;-61
2022/08/30 03:41:16;;;;;;;9.52;5.32;;;17.30;99.90;;;;;;5026500;28;20209;-61
2022/08/30 03:43:42;;;;;;;15.27;7.20;;;17.30;99.90;;;;;;5031513;28;20193;-61
2022/08/30 03:46:09;;;;;;;6.47;5.10;;;17.20;99.90;;;;;;5025145;28;20203;-61
2022/08/30 03:48:35;;;;;;;11.75;5.22;;;17.20;99.90;;;;;;5032281;28;20191;-62
2022/08/30 03:51:01;;;;;;;10.73;6.13;;;17.20;99.90;;;;;;5016527;28;20195;-61
2022/08/30 03:53:27;;;;;;;12.25;6.93;;;17.40;99.90;;;;;;5023762;28;20187;-61
2022/08/30 03:55:53;;;;;;;12.80;5.68;;;17.40;99.90;;;;;;5024413;28;20193;-62
2022/08/30 03:58:18;;;;;;;8.80;5.18;;;17.40;99.90;;;;;;5014901;28;20550;-61
2022/08/30 04:00:44;;;;;;;7.45;5.32;;;17.30;99.90;;;;;;5013890;28;20192;-61
2022/08/30 04:03:10;;;;;;;10.50;5.25;;;17.20;99.90;;;;;;5014506;28;20187;-61
2022/08/30 04:05:36;;;;;;;7.85;5.63;;;17.20;99.90;;;;;;5025457;28;20179;-61
2022/08/30 04:08:02;;;;;;;9.90;4.95;;;17.30;99.90;;;;;;5017591;28;20218;-61
2022/08/30 04:10:27;;;;;;;8.63;5.93;;;17.50;99.90;;;;;;5022540;28;20221;-62
2022/08/30 04:12:53;;;;;;;8.05;4.88;;;17.60;99.90;;;;;;5019478;28;20223;-63
2022/08/30 04:15:19;;;;;;;7.40;5.40;;;17.60;99.90;;;;;;5025066;28;20727;-61
2022/08/30 04:17:45;;;;;;;8.70;5.80;;;17.50;99.90;;;;;;5050863;28;20265;-60
2022/08/30 04:20:11;;;;;;;8.70;6.20;;;17.40;99.90;;;;;;5017019;28;20187;-60
2022/08/30 04:22:37;;;;;;;7.95;5.10;;;17.20;99.90;;;;;;5031056;28;20274;-60
2022/08/30 04:25:04;;;;;;;8.55;5.60;;;17.10;99.90;;;;;;5055919;28;20687;-61
2022/08/30 04:27:29;;;;;;;9.27;5.32;;;17.30;99.90;;;;;;5019636;28;20225;-60
2022/08/30 04:29:55;;;;;;;5.40;4.90;;;17.40;99.90;;;;;;5013999;28;20270;-62
2022/08/30 04:32:21;;;;;;;8.05;6.10;;;17.40;99.90;;;;;;5025492;28;20194;-63
2022/08/30 04:34:47;;;;;;;13.43;6.25;;;17.30;99.90;;;;;;5012381;28;20185;-62
2022/08/30 04:37:13;;;;;;;8.82;5.78;;;17.20;99.90;;;;;;5017743;28;20188;-60
2022/08/30 04:39:39;;;;;;;7.45;5.32;;;17.20;99.90;;;;;;5024050;28;20644;-61
2022/08/30 04:42:05;;;;;;;9.43;5.90;;;17.40;99.90;;;;;;5018877;28;20187;-62
2022/08/30 04:44:31;;;;;;;8.15;5.85;;;17.30;99.90;;;;;;5026872;28;20187;-61
2022/08/30 04:46:57;;;;;;;8.43;6.15;;;17.40;99.90;;;;;;5013414;28;20676;-61
2022/08/30 04:49:23;;;;;;;11.35;6.38;;;17.40;99.90;;;;;;5015404;28;20183;-61
2022/08/30 04:51:49;;;;;;;8.57;6.25;;;17.30;99.90;;;;;;5024352;28;20637;-61
2022/08/30 04:54:15;;;;;;;10.20;6.68;;;17.20;99.90;;;;;;5013190;28;20269;-61
2022/08/30 04:56:42;;;;;;;8.73;5.18;;;17.20;99.90;;;;;;5012180;28;20190;-61
2022/08/30 04:59:08;;;;;;;8.15;6.85;;;17.10;99.90;;;;;;5022537;28;20240;-62
2022/08/30 05:01:34;;;;;;;14.95;6.32;;;17.10;99.90;;;;;;5025371;28;20376;-64
2022/08/30 05:03:59;;;;;;;9.02;5.05;;;17.10;99.90;;;;;;5015735;28;20627;-61
2022/08/30 05:06:27;;;;;;;10.43;5.65;;;17.20;99.90;;;;;;5044755;28;20683;-62
2022/08/30 05:08:53;;;;;;;13.15;6.13;;;17.20;99.90;;;;;;5021138;28;20194;-61
2022/08/30 05:11:19;;;;;;;7.25;5.72;;;17.50;99.90;;;;;;5018876;28;20186;-63
2022/08/30 05:13:45;;;;;;;9.90;5.70;;;17.50;99.90;;;;;;5022875;28;20184;-61
2022/08/30 05:16:16;;;;;;;8.25;6.15;;;17.40;99.90;;;;;;5013464;28;20237;-65
2022/08/30 05:18:43;;;;;;;6.15;4.97;;;17.20;99.90;;;;;;5024683;28;20206;-63
2022/08/30 05:21:13;;;;;;;10.23;6.20;;;17.20;99.90;;;;;;5020831;28;20206;-62
2022/08/30 05:23:40;;;;;;;7.47;5.88;;;17.20;99.90;;;;;;5014116;28;20226;-62
2022/08/30 05:26:08;;;;;;;6.43;5.78;;;17.20;99.90;;;;;;5046330;28;20215;-62
2022/08/30 05:28:35;;;;;;;7.15;5.78;;;17.10;99.90;;;;;;5028090;28;20228;-62
2022/08/30 05:31:01;;;;;;;9.13;6.15;;;17.10;99.90;;;;;;5019041;28;20190;-62
2022/08/30 05:33:27;;;;;;;12.18;5.93;;;17.10;99.90;;;;;;5018119;28;20226;-62
2022/08/30 05:35:53;;;;;;;11.32;6.28;;;17.10;99.90;;;;;;5018263;28;20195;-62
2022/08/30 05:38:19;;;;;;;10.57;5.97;;;17.00;99.90;;;;;;5017701;28;20182;-62
2022/08/30 05:40:45;;;;;;;6.88;5.95;;;17.10;99.90;;;;;;5025494;28;20194;-62
2022/08/30 05:43:13;;;;;;;9.88;6.10;;;17.20;99.90;;;;;;5029474;28;20221;-62
2022/08/30 05:45:38;;;;;;;9.20;5.85;;;17.20;99.90;;;;;;5016987;28;20222;-62
2022/08/30 05:48:04;;;;;;;11.40;6.57;;;17.30;99.90;;;;;;5013265;28;20228;-62
2022/08/30 05:50:30;;;;;;;6.57;5.35;;;17.40;99.90;;;;;;5012168;28;20223;-62
2022/08/30 05:52:55;;;;;;;16.48;6.38;;;17.40;99.90;;;;;;5012778;28;20195;-62
2022/08/30 05:55:21;;;;;;;12.70;6.78;;;17.40;99.90;;;;;;5013004;28;20203;-62
2022/08/30 05:57:47;;;;;;;10.35;6.63;;;17.40;99.90;;;;;;5016075;28;20195;-62
2022/08/30 06:00:16;;;;;;;7.75;5.75;;;17.40;99.90;;;;;;5024468;28;20185;-62
2022/08/30 06:02:42;;;;;;;8.90;6.95;;;17.30;99.90;;;;;;5030545;28;20572;-62
2022/08/30 06:05:09;;;;;;;9.02;5.68;;;17.40;99.90;;;;;;5023545;28;20221;-62
2022/08/30 06:07:35;;;;;;;9.52;6.60;;;17.30;99.90;;;;;;5030585;28;20222;-61
2022/08/30 06:10:02;;;;;;;8.43;6.50;;;17.40;99.90;;;;;;5018039;28;20236;-62
2022/08/30 06:12:28;;;;;;;10.30;6.28;;;17.50;99.90;;;;;;5034155;28;20717;-62
2022/08/30 06:14:54;;;;;;;10.63;5.68;;;17.90;99.90;;;;;;5035508;28;20182;-62
2022/08/30 06:17:20;;;;;;;16.85;6.88;;;18.00;99.90;;;;;;5033270;28;20195;-62
2022/08/30 06:19:45;;;;;;;11.45;6.35;;;18.10;99.90;;;;;;5034525;28;20186;-62
2022/08/30 06:22:11;;;;;;;8.68;6.65;;;18.20;99.90;;;;;;5020342;28;20675;-62
2022/08/30 06:24:37;;;;;;;8.95;6.57;;;18.00;99.90;;;;;;5016542;28;20203;-62
2022/08/30 06:27:03;;;;;;;8.82;6.97;;;18.00;99.90;;;;;;5047926;28;20257;-62
2022/08/30 06:29:29;;;;;;;8.85;5.60;;;18.20;99.90;;;;;;5016641;28;20191;-62
2022/08/30 06:31:56;;;;;;;12.98;6.88;;;18.00;99.90;;;;;;5020438;28;20294;-62
2022/08/30 06:34:22;;;;;;;9.98;5.60;;;18.10;99.90;;;;;;5016373;28;20179;-62
2022/08/30 06:36:48;;;;;;;7.20;5.50;;;18.10;99.90;;;;;;5024927;28;20230;-62
2022/08/30 06:39:13;;;;;;;9.48;6.75;;;18.10;99.90;;;;;;5032719;28;20540;-62
2022/08/30 06:41:40;;;;;;;7.93;5.95;;;18.20;99.90;;;;;;5033284;28;20202;-62
2022/08/30 06:44:06;;;;;;;8.77;6.28;;;18.30;99.90;;;;;;5020761;28;20648;-64
2022/08/30 06:46:35;;;;;;;12.73;6.55;;;18.50;99.90;;;;;;5023954;28;20252;-62
2022/08/30 06:49:02;;;;;;;8.98;5.68;;;18.50;99.90;;;;;;5021246;28;20179;-63
2022/08/30 06:51:33;;;;;;;7.75;6.65;;;18.50;99.90;;;;;;5021351;28;20659;-62
2022/08/30 06:53:59;;;;;;;11.43;6.43;;;18.70;99.90;;;;;;5022750;28;20187;-62
2022/08/30 06:56:26;;;;;;;10.18;6.47;;;18.90;99.90;;;;;;5016751;28;20183;-62
2022/08/30 06:58:52;;;;;;;7.78;5.85;;;19.10;99.90;;;;;;5016338;28;20557;-62
2022/08/30 07:01:24;;;;;;;9.23;6.22;;;19.00;99.90;;;;;;5016113;28;20211;-62
2022/08/30 07:03:50;;;;;;;8.82;6.65;;;18.80;99.90;;;;;;5015782;28;20215;-62
2022/08/30 07:06:17;;;;;;;10.05;6.65;;;18.80;99.90;;;;;;5048117;28;20314;-62
2022/08/30 07:08:44;;;;;;;8.13;5.97;;;18.70;99.90;;;;;;5027437;28;20644;-62
2022/08/30 07:11:10;;;;;;;11.68;6.75;;;19.00;99.90;;;;;;5024578;28;20233;-62
2022/08/30 07:13:36;;;;;;;7.15;5.80;;;19.00;99.90;;;;;;5020606;28;20187;-62
2022/08/30 07:16:10;;;;;;;9.82;5.95;;;19.10;99.90;;;;;;5022765;28;20199;-62
2022/08/30 07:18:53;;;;;;;7.53;6.28;;;19.30;99.90;;;;;;5015821;28;20544;-62
2022/08/30 07:21:26;;;;;;;8.65;6.18;;;19.50;99.90;;;;;;5014698;28;20187;-62
2022/08/30 07:23:52;;;;;;;10.80;5.90;;;19.30;99.90;;;;;;5022080;28;20183;-62
2022/08/30 07:26:23;;;;;;;6.75;5.70;;;19.40;99.90;;;;;;5015361;28;20215;-62
2022/08/30 07:28:49;;;;;;;12.13;7.35;;;19.50;99.90;;;;;;5013888;28;20183;-62
2022/08/30 07:31:18;;;;;;;12.82;7.95;;;19.70;99.90;;;;;;5022295;28;20183;-62
2022/08/30 07:33:45;;;;;;;5.72;5.15;;;19.90;99.90;;;;;;5028346;28;20218;-62
2022/08/30 07:36:11;;;;;;;10.38;5.93;;;20.20;99.90;;;;;;5022506;28;20297;-63
2022/08/30 07:38:37;;;;;;;9.57;6.00;;;20.50;99.90;;;;;;5026066;28;20191;-62
2022/08/30 07:41:03;;;;;;;8.02;6.43;;;20.90;99.90;;;;;;5020997;28;20547;-62
2022/08/30 07:43:30;;;;;;;8.93;6.50;;;21.10;99.90;;;;;;5024379;28;20204;-62
2022/08/30 07:46:01;;;;;;;9.35;6.20;;;21.20;99.90;;;;;;5016619;28;20217;-62
2022/08/30 07:48:26;;;;;;;7.43;6.13;;;21.30;99.90;;;;;;5029566;28;20274;-62
2022/08/30 07:50:52;;;;;;;6.65;4.88;;;21.90;99.90;;;;;;5013157;28;20281;-62
2022/08/30 07:53:18;;;;;;;11.15;5.05;;;21.70;99.90;;;;;;5014285;28;20184;-62
2022/08/30 07:55:43;;;;;;;8.77;5.22;;;22.00;99.90;;;;;;5013417;28;20187;-62
2022/08/30 07:58:09;;;;;;;7.30;5.47;;;22.30;99.90;;;;;;5015752;28;20554;-62
2022/08/30 08:00:35;;;;;;;7.00;5.55;;;22.90;99.90;;;;;;5041478;28;20182;-62
2022/08/30 08:03:08;;;;;;;8.57;5.57;;;23.10;99.90;;;;;;5027080;28;20690;-62
2022/08/30 08:05:42;;;;;;;6.15;5.22;;;23.70;99.90;;;;;;5028987;28;20187;-62
2022/08/30 08:08:08;;;;;;;6.70;4.53;;;23.20;99.90;;;;;;5031450;28;20209;-64
2022/08/30 08:10:37;;;;;;;10.70;5.18;;;22.60;99.90;;;;;;5017603;28;20393;-62
2022/08/30 08:13:04;;;;;;;7.55;6.10;;;22.70;99.90;;;;;;5020199;28;20198;-62
2022/08/30 08:15:30;;;;;;;5.40;4.25;;;23.00;99.90;;;;;;5014757;28;20270;-63
2022/08/30 08:17:56;;;;;;;5.00;4.53;;;24.00;99.90;;;;;;5015201;28;20275;-63
2022/08/30 08:20:22;;;;;;;6.20;4.60;;;25.10;99.90;;;;;;5029809;28;20184;-62
2022/08/30 08:22:48;;;;;;;5.38;4.63;;;25.90;99.90;;;;;;5022924;28;20270;-62
2022/08/30 08:25:14;;;;;;;7.18;5.38;;;26.20;99.90;;;;;;5015723;28;20724;-62
2022/08/30 08:27:40;;;;;;;15.95;4.97;;;26.40;99.90;;;;;;5015514;28;20256;-62
2022/08/30 08:30:06;;;;;;;6.25;4.88;;;26.60;99.90;;;;;;5014830;28;20273;-62
2022/08/30 08:32:32;;;;;;;8.10;4.82;;;26.40;99.90;;;;;;5026113;28;20186;-64
2022/08/30 08:34:58;;;;;;;6.75;5.15;;;27.00;99.90;;;;;;5026914;28;20187;-62
2022/08/30 08:37:24;;;;;;;5.20;4.57;;;26.10;99.90;;;;;;5046140;28;20189;-62
2022/08/30 08:39:51;;;;;;;9.25;6.05;;;26.00;99.90;;;;;;5023925;28;20701;-62
2022/08/30 08:42:27;;;;;;;5.35;4.38;;;26.20;99.90;;;;;;5013988;28;20190;-63
2022/08/30 08:45:13;;;;;;;7.88;5.22;;;25.60;99.90;;;;;;5017575;28;20550;-62
2022/08/30 08:48:20;;;;;;;6.18;4.32;;;25.90;99.90;;;;;;5012572;28;20206;-62
2022/08/30 08:53:36;;;;;;;8.38;4.28;;;27.00;99.90;;;;;;5013814;28;20229;-64
2022/08/30 08:56:21;;;;;;;4.57;3.85;;;26.10;99.90;;;;;;5014141;28;20187;-62
2022/08/30 08:58:54;;;;;;;4.88;4.35;;;25.00;99.90;;;;;;5020194;28;20644;-63
2022/08/30 09:01:26;;;;;;;7.18;4.70;;;24.50;99.90;;;;;;5013165;28;20663;-62
2022/08/30 09:03:53;;;;;;;10.25;4.32;;;23.80;99.90;;;;;;5020202;28;20234;-62
2022/08/30 09:06:28;;;;;;;7.90;4.72;;;23.60;99.90;;;;;;5013519;28;20285;-62
2022/08/30 09:08:54;;;;;;;6.35;4.60;;;23.20;99.90;;;;;;5013643;28;20202;-62
2022/08/30 09:11:26;;;;;;;8.40;5.22;;;22.80;99.90;;;;;;5045413;28;20176;-62
2022/08/30 09:13:53;;;;;;;5.47;4.43;;;22.80;99.90;;;;;;5018474;28;20657;-62
2022/08/30 09:17:07;;;;;;;8.40;5.32;;;23.20;99.90;;;;;;5020292;28;20561;-62
2022/08/30 09:19:35;;;;;;;6.70;3.95;;;23.50;99.90;;;;;;5043386;28;20656;-63
2022/08/30 09:22:14;;;;;;;7.07;4.00;;;23.60;99.90;;;;;;5050985;28;20185;-62
2022/08/30 09:24:46;;;;;;;5.97;4.45;;;23.30;99.90;;;;;;5017434;28;20517;-62
2022/08/30 09:27:19;;;;;;;5.80;4.70;;;23.20;99.90;;;;;;5019964;28;20237;-62
2022/08/30 09:30:19;;;;;;;4.80;3.88;;;23.30;99.90;;;;;;5018715;28;20185;-62
2022/08/30 09:32:56;;;;;;;7.28;5.97;;;23.40;99.90;;;;;;5018175;28;20322;-62
2022/08/30 09:35:35;;;;;;;8.45;3.50;;;23.20;99.90;;;;;;5026655;28;20179;-62
2022/08/30 09:38:05;;;;;;;5.97;4.75;;;23.30;99.90;;;;;;5019927;28;20256;-62
2022/08/30 09:40:41;;;;;;;6.65;4.25;;;23.40;99.90;;;;;;5016987;28;20194;-63
2022/08/30 09:43:29;;;;;;;6.45;3.55;;;23.40;99.90;;;;;;5016525;28;20189;-63
2022/08/30 09:45:57;;;;;;;5.30;4.25;;;23.30;99.90;;;;;;5023514;28;20234;-63
2022/08/30 09:48:27;;;;;;;5.80;3.45;;;23.50;99.90;;;;;;5012979;28;20183;-64
2022/08/30 09:51:21;;;;;;;5.43;3.75;;;23.60;99.90;;;;;;5023766;28;20183;-63
2022/08/30 09:53:53;;;;;;;4.80;3.30;;;23.70;99.90;;;;;;5013032;28;20198;-63
2022/08/30 09:56:49;;;;;;;3.45;2.88;;;24.00;99.90;;;;;;5015567;28;20186;-63
2022/08/30 09:59:33;;;;;;;6.00;4.38;;;24.10;99.90;;;;;;5027828;28;20549;-63
2022/08/30 10:02:29;;;;;;;5.75;2.67;;;24.20;99.90;;;;;;5013156;28;20183;-62
2022/08/30 10:05:23;;;;;;;4.60;2.72;;;24.60;99.90;;;;;;5023064;28;20186;-62
2022/08/30 10:08:26;;;;;;;4.47;3.10;;;24.70;99.90;;;;;;5012388;28;20219;-62
2022/08/30 10:10:59;;;;;;;4.15;3.42;;;24.70;99.90;;;;;;5012600;28;20652;-62
2022/08/30 10:13:52;;;;;;;6.63;3.72;;;24.30;99.90;;;;;;5029740;28;20206;-62
2022/08/30 10:16:40;;;;;;;6.65;3.72;;;24.00;99.90;;;;;;5012576;28;20187;-61
2022/08/30 10:19:15;;;;;;;3.75;2.90;;;23.80;99.90;;;;;;5011412;28;20210;-62
2022/08/30 10:22:06;;;;;;;4.97;3.63;;;23.80;99.90;;;;;;5013489;28;20606;-62
2022/08/30 10:24:41;;;;;;;2.88;2.65;;;23.80;99.90;;;;;;5016454;28;20183;-62
2022/08/30 10:27:14;;;;;;;3.75;3.45;;;24.20;99.90;;;;;;5030446;28;20558;-62
2022/08/30 10:29:49;;;;;;;4.53;3.47;;;24.50;99.90;;;;;;5016664;28;20210;-62
2022/08/30 10:32:15;;;;;;;13.98;3.33;;;24.10;99.90;;;;;;5012350;28;20183;-62
2022/08/30 10:34:48;;;;;;;3.45;2.83;;;24.40;99.90;;;;;;5013055;28;20190;-62
2022/08/30 10:37:20;;;;;;;9.77;3.25;;;24.60;99.90;;;;;;5012870;28;20246;-62
2022/08/30 10:39:50;;;;;;;3.60;3.17;;;24.50;99.90;;;;;;5011239;28;20187;-63
2022/08/30 10:42:24;;;;;;;3.30;2.95;;;24.70;99.90;;;;;;5018771;28;20214;-62
2022/08/30 10:45:09;;;;;;;8.80;2.83;;;24.80;99.90;;;;;;5023169;28;20192;-62
2022/08/30 10:47:59;;;;;;;3.58;3.28;;;25.00;99.90;;;;;;5018315;28;20217;-63
2022/08/30 10:50:31;;;;;;;2.92;2.58;;;25.10;99.90;;;;;;5034761;28;20218;-62
2022/08/30 10:53:11;;;;;;;3.63;3.33;;;25.10;99.90;;;;;;5026165;28;20234;-62
2022/08/30 10:55:44;;;;;;;3.67;2.63;;;25.40;99.90;;;;;;5028161;28;20182;-62
2022/08/30 10:58:11;;;;;;;8.85;3.22;;;25.50;99.90;;;;;;5035074;28;20636;-62
2022/08/30 11:00:49;;;;;;;6.28;2.88;;;25.40;99.90;;;;;;5014636;28;20542;-62
2022/08/30 11:03:38;;;;;;;5.50;2.53;;;25.00;99.90;;;;;;5017241;28;20206;-62
2022/08/30 11:06:13;;;;;;;9.20;3.40;;;24.90;99.90;;;;;;5016381;28;20221;-62
2022/08/30 11:08:54;;;;;;;5.28;3.30;;;24.80;99.90;;;;;;5031751;28;20260;-62
2022/08/30 11:11:48;;;;;;;4.55;2.65;;;24.80;99.90;;;;;;5028355;28;20177;-62
2022/08/30 11:14:17;;;;;;;3.53;2.83;;;24.80;99.90;;;;;;5031473;28;20229;-62
2022/08/30 11:16:47;;;;;;;3.28;2.58;;;25.10;99.90;;;;;;5016987;28;20187;-62
2022/08/30 11:19:18;;;;;;;6.93;3.85;;;25.00;99.90;;;;;;5015326;28;20274;-63
2022/08/30 11:21:44;;;;;;;5.10;4.05;;;25.00;99.90;;;;;;5027582;28;20209;-62
2022/08/30 11:24:21;;;;;;;4.75;3.00;;;24.80;99.90;;;;;;5026398;28;20663;-62
2022/08/30 11:26:47;;;;;;;5.75;3.53;;;24.80;99.90;;;;;;5016340;28;20221;-62
2022/08/30 11:29:25;;;;;;;4.30;3.35;;;25.10;99.90;;;;;;5015424;28;20688;-62
2022/08/30 11:31:52;;;;;;;2.90;2.50;;;25.30;99.90;;;;;;5015022;28;20190;-62
2022/08/30 11:34:46;;;;;;;5.10;3.10;;;25.30;99.90;;;;;;5015540;28;20183;-62
2022/08/30 11:37:56;;;;;;;9.70;3.50;;;25.50;99.90;;;;;;5018592;28;20190;-62
2022/08/30 11:40:22;;;;;;;8.07;2.97;;;25.30;99.90;;;;;;5024600;28;20565;-62
2022/08/30 11:42:53;;;;;;;4.95;2.90;;;25.40;99.90;;;;;;5026462;28;20186;-62
2022/08/30 11:45:21;;;;;;;3.35;2.63;;;25.60;99.90;;;;;;5023648;28;20191;-62
2022/08/30 11:47:56;;;;;;;4.07;3.03;;;25.70;99.90;;;;;;5059280;28;20284;-62
2022/08/30 11:50:44;;;;;;;4.05;2.70;;;25.90;99.90;;;;;;5026699;28;20192;-61
2022/08/30 11:53:27;;;;;;;5.55;3.55;;;26.20;99.90;;;;;;5021748;28;20182;-62
2022/08/30 11:56:03;;;;;;;7.20;3.53;;;26.10;99.90;;;;;;5022355;28;20233;-63
2022/08/30 11:58:43;;;;;;;4.35;2.72;;;26.20;99.90;;;;;;5025541;28;20210;-62
2022/08/30 12:01:14;;;;;;;2.80;2.55;;;26.20;99.90;;;;;;5019246;28;20179;-62
2022/08/30 12:03:40;;;;;;;8.02;2.60;;;26.00;99.90;;;;;;5018440;28;20190;-62
2022/08/30 12:06:08;;;;;;;2.58;2.00;;;26.20;99.90;;;;;;5026878;28;20302;-62
2022/08/30 12:08:33;;;;;;;4.15;2.40;;;26.00;99.90;;;;;;5023464;28;20197;-63
2022/08/30 12:11:11;;;;;;;3.20;2.22;;;26.20;99.90;;;;;;5023315;28;20191;-62
2022/08/30 12:13:43;;;;;;;3.28;2.88;;;26.10;99.90;;;;;;5024757;28;20222;-64
2022/08/30 12:16:31;;;;;;;3.90;2.42;;;26.10;99.90;;;;;;5014993;28;20183;-63
2022/08/30 12:19:10;;;;;;;3.38;2.30;;;26.20;99.90;;;;;;5011782;28;20202;-62
2022/08/30 12:21:37;;;;;;;4.72;3.97;;;26.10;99.90;;;;;;5013589;28;20213;-63
2022/08/30 12:24:17;;;;;;;3.63;2.63;;;26.10;99.90;;;;;;5014821;28;20262;-62
2022/08/30 12:26:45;;;;;;;2.70;2.45;;;26.10;99.90;;;;;;5019066;28;20244;-62
2022/08/30 12:29:19;;;;;;;7.47;4.38;;;26.00;99.90;;;;;;5021154;28;20187;-62
2022/08/30 12:31:50;;;;;;;7.70;2.92;;;26.00;99.90;;;;;;5014666;28;20230;-62
2022/08/30 12:34:24;;;;;;;5.20;3.40;;;26.00;99.90;;;;;;5023487;28;20190;-60
2022/08/30 12:37:18;;;;;;;5.47;2.72;;;26.00;99.90;;;;;;5019246;28;20187;-62
2022/08/30 12:39:44;;;;;;;7.75;3.50;;;25.70;99.90;;;;;;5022788;28;20182;-63
2022/08/30 12:42:26;;;;;;;6.30;2.40;;;25.50;99.90;;;;;;5030003;28;20183;-64
2022/08/30 12:44:59;;;;;;;7.90;3.17;;;25.50;99.90;;;;;;5023487;28;20631;-61
2022/08/30 12:47:46;;;;;;;5.10;3.92;;;25.50;99.90;;;;;;5024788;28;20211;-62
2022/08/30 12:50:16;;;;;;;4.95;3.00;;;25.50;99.90;;;;;;5031654;28;20187;-62
2022/08/30 12:52:45;;;;;;;4.40;2.85;;;25.40;99.90;;;;;;5019897;28;20187;-62
2022/08/30 12:55:20;;;;;;;3.80;2.70;;;25.70;99.90;;;;;;5015016;28;20187;-62
2022/08/30 12:58:09;;;;;;;3.65;2.83;;;26.10;99.90;;;;;;5012067;28;20764;-62
2022/08/30 13:00:43;;;;;;;3.03;2.20;;;26.50;99.90;;;;;;5014497;28;20191;-62
2022/08/30 13:03:28;;;;;;;3.35;2.58;;;26.50;99.90;;;;;;5031187;28;20190;-62
2022/08/30 13:05:56;;;;;;;5.80;2.70;;;26.40;99.90;;;;;;5029907;28;20235;-62